sensor_id;sensor_type;location;lat;lon;timestamp;P1;durP1;ratioP1;P2;durP2;ratioP2
43509;SDS011;29105;57.764;40.952;2022-08-19T00:00:26;9.00;;;5.22;;
43509;SDS011;29105;57.764;40.952;2022-08-19T00:02:52;7.22;;;5.47;;
43509;SDS011;29105;57.764;40.952;2022-08-19T00:05:19;8.35;;;7.13;;
43509;SDS011;29105;57.764;40.952;2022-08-19T00:07:46;9.02;;;8.15;;
43509;SDS011;29105;57.764;40.952;2022-08-19T00:10:14;10.65;;;7.38;;
43509;SDS011;29105;57.764;40.952;2022-08-19T00:12:40;10.27;;;7.95;;
43509;SDS011;29105;57.764;40.952;2022-08-19T00:15:08;9.18;;;8.15;;
43509;SDS011;29105;57.764;40.952;2022-08-19T00:17:39;8.35;;;6.70;;
43509;SDS011;29105;57.764;40.952;2022-08-19T00:20:09;9.98;;;7.43;;
43509;SDS011;29105;57.764;40.952;2022-08-19T00:22:38;9.60;;;5.30;;
43509;SDS011;29105;57.764;40.952;2022-08-19T00:25:06;6.88;;;5.38;;
43509;SDS011;29105;57.764;40.952;2022-08-19T00:27:33;5.07;;;4.57;;
43509;SDS011;29105;57.764;40.952;2022-08-19T00:29:58;4.95;;;4.15;;
43509;SDS011;29105;57.764;40.952;2022-08-19T00:32:25;5.43;;;4.53;;
43509;SDS011;29105;57.764;40.952;2022-08-19T00:34:51;6.00;;;4.15;;
43509;SDS011;29105;57.764;40.952;2022-08-19T00:37:18;10.68;;;4.13;;
43509;SDS011;29105;57.764;40.952;2022-08-19T00:39:50;6.72;;;4.38;;
43509;SDS011;29105;57.764;40.952;2022-08-19T00:42:19;8.35;;;4.32;;
43509;SDS011;29105;57.764;40.952;2022-08-19T00:44:46;7.10;;;3.47;;
43509;SDS011;29105;57.764;40.952;2022-08-19T00:47:12;7.10;;;3.80;;
43509;SDS011;29105;57.764;40.952;2022-08-19T00:49:45;7.00;;;3.83;;
43509;SDS011;29105;57.764;40.952;2022-08-19T00:52:21;6.03;;;3.75;;
43509;SDS011;29105;57.764;40.952;2022-08-19T00:54:49;4.72;;;3.60;;
43509;SDS011;29105;57.764;40.952;2022-08-19T00:57:17;6.35;;;3.08;;
43509;SDS011;29105;57.764;40.952;2022-08-19T00:59:46;5.60;;;2.80;;
43509;SDS011;29105;57.764;40.952;2022-08-19T01:02:13;4.50;;;2.88;;
43509;SDS011;29105;57.764;40.952;2022-08-19T01:04:40;8.18;;;3.13;;
43509;SDS011;29105;57.764;40.952;2022-08-19T01:07:06;6.82;;;2.63;;
43509;SDS011;29105;57.764;40.952;2022-08-19T01:09:32;3.85;;;3.30;;
43509;SDS011;29105;57.764;40.952;2022-08-19T01:11:59;8.18;;;2.80;;
43509;SDS011;29105;57.764;40.952;2022-08-19T01:14:24;3.72;;;3.17;;
43509;SDS011;29105;57.764;40.952;2022-08-19T01:16:50;3.85;;;3.00;;
43509;SDS011;29105;57.764;40.952;2022-08-19T01:19:30;3.05;;;2.40;;
43509;SDS011;29105;57.764;40.952;2022-08-19T01:22:03;6.03;;;2.65;;
43509;SDS011;29105;57.764;40.952;2022-08-19T01:24:40;4.97;;;3.60;;
43509;SDS011;29105;57.764;40.952;2022-08-19T01:27:07;4.80;;;3.05;;
43509;SDS011;29105;57.764;40.952;2022-08-19T01:29:34;5.18;;;2.50;;
43509;SDS011;29105;57.764;40.952;2022-08-19T01:32:03;4.03;;;2.25;;
43509;SDS011;29105;57.764;40.952;2022-08-19T01:34:28;3.85;;;2.70;;
43509;SDS011;29105;57.764;40.952;2022-08-19T01:36:54;3.60;;;2.47;;
43509;SDS011;29105;57.764;40.952;2022-08-19T01:39:24;3.20;;;2.28;;
43509;SDS011;29105;57.764;40.952;2022-08-19T01:41:50;4.88;;;2.50;;
43509;SDS011;29105;57.764;40.952;2022-08-19T01:44:20;2.45;;;2.00;;
43509;SDS011;29105;57.764;40.952;2022-08-19T01:46:49;3.28;;;2.30;;
43509;SDS011;29105;57.764;40.952;2022-08-19T01:49:18;3.80;;;2.40;;
43509;SDS011;29105;57.764;40.952;2022-08-19T01:51:46;3.47;;;2.50;;
43509;SDS011;29105;57.764;40.952;2022-08-19T01:54:13;5.18;;;2.25;;
43509;SDS011;29105;57.764;40.952;2022-08-19T01:56:40;3.90;;;2.70;;
43509;SDS011;29105;57.764;40.952;2022-08-19T01:59:14;8.27;;;2.92;;
43509;SDS011;29105;57.764;40.952;2022-08-19T02:01:42;5.70;;;2.80;;
43509;SDS011;29105;57.764;40.952;2022-08-19T02:04:07;5.75;;;2.60;;
43509;SDS011;29105;57.764;40.952;2022-08-19T02:06:33;6.93;;;2.80;;
43509;SDS011;29105;57.764;40.952;2022-08-19T02:08:59;8.07;;;2.72;;
43509;SDS011;29105;57.764;40.952;2022-08-19T02:11:26;3.38;;;1.98;;
43509;SDS011;29105;57.764;40.952;2022-08-19T02:13:54;4.72;;;2.45;;
43509;SDS011;29105;57.764;40.952;2022-08-19T02:16:25;3.63;;;2.42;;
43509;SDS011;29105;57.764;40.952;2022-08-19T02:18:51;2.90;;;2.00;;
43509;SDS011;29105;57.764;40.952;2022-08-19T02:21:17;7.93;;;2.42;;
43509;SDS011;29105;57.764;40.952;2022-08-19T02:23:44;5.03;;;2.33;;
43509;SDS011;29105;57.764;40.952;2022-08-19T02:26:11;3.33;;;2.03;;
43509;SDS011;29105;57.764;40.952;2022-08-19T02:28:38;9.27;;;2.30;;
43509;SDS011;29105;57.764;40.952;2022-08-19T02:31:08;4.65;;;2.42;;
43509;SDS011;29105;57.764;40.952;2022-08-19T02:33:35;7.13;;;2.38;;
43509;SDS011;29105;57.764;40.952;2022-08-19T02:36:02;7.63;;;2.97;;
43509;SDS011;29105;57.764;40.952;2022-08-19T02:38:29;7.97;;;2.75;;
43509;SDS011;29105;57.764;40.952;2022-08-19T02:40:59;7.18;;;3.00;;
43509;SDS011;29105;57.764;40.952;2022-08-19T02:43:27;5.30;;;3.25;;
43509;SDS011;29105;57.764;40.952;2022-08-19T02:45:54;5.82;;;4.50;;
43509;SDS011;29105;57.764;40.952;2022-08-19T02:48:21;9.18;;;4.60;;
43509;SDS011;29105;57.764;40.952;2022-08-19T02:50:51;6.25;;;4.22;;
43509;SDS011;29105;57.764;40.952;2022-08-19T02:53:21;10.02;;;4.43;;
43509;SDS011;29105;57.764;40.952;2022-08-19T02:55:48;12.13;;;4.60;;
43509;SDS011;29105;57.764;40.952;2022-08-19T02:58:15;11.80;;;4.80;;
43509;SDS011;29105;57.764;40.952;2022-08-19T03:00:42;7.00;;;5.55;;
43509;SDS011;29105;57.764;40.952;2022-08-19T03:03:09;8.32;;;5.70;;
43509;SDS011;29105;57.764;40.952;2022-08-19T03:05:35;7.38;;;5.93;;
43509;SDS011;29105;57.764;40.952;2022-08-19T03:08:00;7.68;;;5.47;;
43509;SDS011;29105;57.764;40.952;2022-08-19T03:10:26;10.57;;;4.78;;
43509;SDS011;29105;57.764;40.952;2022-08-19T03:12:52;6.90;;;4.70;;
43509;SDS011;29105;57.764;40.952;2022-08-19T03:15:17;5.38;;;3.55;;
43509;SDS011;29105;57.764;40.952;2022-08-19T03:17:43;3.63;;;3.15;;
43509;SDS011;29105;57.764;40.952;2022-08-19T03:20:09;4.68;;;3.80;;
43509;SDS011;29105;57.764;40.952;2022-08-19T03:22:40;3.45;;;2.90;;
43509;SDS011;29105;57.764;40.952;2022-08-19T03:25:05;6.13;;;2.65;;
43509;SDS011;29105;57.764;40.952;2022-08-19T03:27:31;5.22;;;2.90;;
43509;SDS011;29105;57.764;40.952;2022-08-19T03:29:57;7.57;;;3.47;;
43509;SDS011;29105;57.764;40.952;2022-08-19T03:32:23;5.88;;;3.13;;
43509;SDS011;29105;57.764;40.952;2022-08-19T03:34:49;2.53;;;1.90;;
43509;SDS011;29105;57.764;40.952;2022-08-19T03:37:16;3.40;;;2.25;;
43509;SDS011;29105;57.764;40.952;2022-08-19T03:39:41;5.30;;;2.15;;
43509;SDS011;29105;57.764;40.952;2022-08-19T03:42:07;3.88;;;1.85;;
43509;SDS011;29105;57.764;40.952;2022-08-19T03:44:34;2.60;;;1.60;;
43509;SDS011;29105;57.764;40.952;2022-08-19T03:47:01;4.25;;;2.10;;
43509;SDS011;29105;57.764;40.952;2022-08-19T03:49:28;2.65;;;1.90;;
43509;SDS011;29105;57.764;40.952;2022-08-19T03:51:56;5.15;;;1.98;;
43509;SDS011;29105;57.764;40.952;2022-08-19T03:54:23;10.48;;;2.13;;
43509;SDS011;29105;57.764;40.952;2022-08-19T03:56:51;4.50;;;1.95;;
43509;SDS011;29105;57.764;40.952;2022-08-19T03:59:20;2.85;;;1.98;;
43509;SDS011;29105;57.764;40.952;2022-08-19T04:01:50;5.25;;;1.80;;
43509;SDS011;29105;57.764;40.952;2022-08-19T04:04:19;4.88;;;1.63;;
43509;SDS011;29105;57.764;40.952;2022-08-19T04:06:47;6.60;;;2.08;;
43509;SDS011;29105;57.764;40.952;2022-08-19T04:09:16;9.25;;;2.00;;
43509;SDS011;29105;57.764;40.952;2022-08-19T04:11:51;3.08;;;1.92;;
43509;SDS011;29105;57.764;40.952;2022-08-19T04:14:27;4.30;;;2.22;;
43509;SDS011;29105;57.764;40.952;2022-08-19T04:17:00;2.97;;;1.70;;
43509;SDS011;29105;57.764;40.952;2022-08-19T04:19:29;3.35;;;2.15;;
43509;SDS011;29105;57.764;40.952;2022-08-19T04:21:55;3.25;;;2.15;;
43509;SDS011;29105;57.764;40.952;2022-08-19T04:24:21;3.72;;;1.67;;
43509;SDS011;29105;57.764;40.952;2022-08-19T04:26:47;3.65;;;1.73;;
43509;SDS011;29105;57.764;40.952;2022-08-19T04:29:18;6.60;;;1.75;;
43509;SDS011;29105;57.764;40.952;2022-08-19T04:31:49;4.00;;;1.80;;
43509;SDS011;29105;57.764;40.952;2022-08-19T04:34:17;7.30;;;1.83;;
43509;SDS011;29105;57.764;40.952;2022-08-19T04:36:47;4.22;;;1.67;;
43509;SDS011;29105;57.764;40.952;2022-08-19T04:39:17;7.57;;;1.40;;
43509;SDS011;29105;57.764;40.952;2022-08-19T04:41:44;2.88;;;1.65;;
43509;SDS011;29105;57.764;40.952;2022-08-19T04:44:33;5.60;;;1.33;;
43509;SDS011;29105;57.764;40.952;2022-08-19T04:47:00;2.83;;;1.80;;
43509;SDS011;29105;57.764;40.952;2022-08-19T04:49:26;3.20;;;1.73;;
43509;SDS011;29105;57.764;40.952;2022-08-19T04:51:52;3.65;;;1.40;;
43509;SDS011;29105;57.764;40.952;2022-08-19T04:54:19;7.15;;;1.38;;
43509;SDS011;29105;57.764;40.952;2022-08-19T04:56:51;8.32;;;1.42;;
43509;SDS011;29105;57.764;40.952;2022-08-19T04:59:18;4.25;;;1.30;;
43509;SDS011;29105;57.764;40.952;2022-08-19T05:01:45;4.10;;;1.42;;
43509;SDS011;29105;57.764;40.952;2022-08-19T05:04:16;4.80;;;1.33;;
43509;SDS011;29105;57.764;40.952;2022-08-19T05:06:46;3.38;;;1.30;;
43509;SDS011;29105;57.764;40.952;2022-08-19T05:09:13;4.90;;;1.27;;
43509;SDS011;29105;57.764;40.952;2022-08-19T05:11:39;9.35;;;1.70;;
43509;SDS011;29105;57.764;40.952;2022-08-19T05:14:05;12.05;;;2.42;;
43509;SDS011;29105;57.764;40.952;2022-08-19T05:16:32;2.78;;;1.40;;
43509;SDS011;29105;57.764;40.952;2022-08-19T05:18:57;6.47;;;1.77;;
43509;SDS011;29105;57.764;40.952;2022-08-19T05:21:42;4.28;;;1.35;;
43509;SDS011;29105;57.764;40.952;2022-08-19T05:24:27;10.05;;;1.45;;
43509;SDS011;29105;57.764;40.952;2022-08-19T05:26:54;2.22;;;1.00;;
43509;SDS011;29105;57.764;40.952;2022-08-19T05:29:22;6.25;;;1.75;;
43509;SDS011;29105;57.764;40.952;2022-08-19T05:31:49;42.25;;;10.85;;
43509;SDS011;29105;57.764;40.952;2022-08-19T05:34:20;6.68;;;1.63;;
43509;SDS011;29105;57.764;40.952;2022-08-19T05:36:48;4.57;;;1.38;;
43509;SDS011;29105;57.764;40.952;2022-08-19T05:39:17;7.50;;;1.50;;
43509;SDS011;29105;57.764;40.952;2022-08-19T05:41:48;10.85;;;1.92;;
43509;SDS011;29105;57.764;40.952;2022-08-19T05:44:19;5.05;;;1.15;;
43509;SDS011;29105;57.764;40.952;2022-08-19T05:46:47;4.45;;;1.30;;
43509;SDS011;29105;57.764;40.952;2022-08-19T05:49:13;3.10;;;0.80;;
43509;SDS011;29105;57.764;40.952;2022-08-19T05:51:41;5.43;;;1.02;;
43509;SDS011;29105;57.764;40.952;2022-08-19T05:54:11;4.65;;;1.30;;
43509;SDS011;29105;57.764;40.952;2022-08-19T05:56:39;1.65;;;0.80;;
43509;SDS011;29105;57.764;40.952;2022-08-19T05:59:06;4.80;;;1.33;;
43509;SDS011;29105;57.764;40.952;2022-08-19T06:01:35;2.88;;;0.88;;
43509;SDS011;29105;57.764;40.952;2022-08-19T06:04:02;6.13;;;1.10;;
43509;SDS011;29105;57.764;40.952;2022-08-19T06:06:29;7.30;;;0.88;;
43509;SDS011;29105;57.764;40.952;2022-08-19T06:08:55;4.68;;;0.70;;
43509;SDS011;29105;57.764;40.952;2022-08-19T06:11:41;4.68;;;0.70;;
43509;SDS011;29105;57.764;40.952;2022-08-19T06:14:09;3.38;;;0.63;;
43509;SDS011;29105;57.764;40.952;2022-08-19T06:16:39;4.47;;;0.47;;
43509;SDS011;29105;57.764;40.952;2022-08-19T06:19:08;4.18;;;1.05;;
43509;SDS011;29105;57.764;40.952;2022-08-19T06:21:39;4.53;;;0.80;;
43509;SDS011;29105;57.764;40.952;2022-08-19T06:24:06;2.40;;;1.02;;
43509;SDS011;29105;57.764;40.952;2022-08-19T06:26:36;6.68;;;0.75;;
43509;SDS011;29105;57.764;40.952;2022-08-19T06:29:03;3.63;;;0.60;;
43509;SDS011;29105;57.764;40.952;2022-08-19T06:31:31;5.13;;;0.57;;
43509;SDS011;29105;57.764;40.952;2022-08-19T06:33:59;4.03;;;0.52;;
43509;SDS011;29105;57.764;40.952;2022-08-19T06:36:29;10.20;;;0.70;;
43509;SDS011;29105;57.764;40.952;2022-08-19T06:38:59;6.57;;;1.05;;
43509;SDS011;29105;57.764;40.952;2022-08-19T06:41:29;8.55;;;0.75;;
43509;SDS011;29105;57.764;40.952;2022-08-19T06:43:59;9.05;;;1.00;;
43509;SDS011;29105;57.764;40.952;2022-08-19T06:46:25;5.00;;;1.05;;
43509;SDS011;29105;57.764;40.952;2022-08-19T06:48:51;9.15;;;0.70;;
43509;SDS011;29105;57.764;40.952;2022-08-19T06:51:18;3.67;;;0.95;;
43509;SDS011;29105;57.764;40.952;2022-08-19T06:53:47;4.30;;;0.40;;
43509;SDS011;29105;57.764;40.952;2022-08-19T06:56:14;6.45;;;0.65;;
43509;SDS011;29105;57.764;40.952;2022-08-19T06:58:41;8.77;;;0.93;;
43509;SDS011;29105;57.764;40.952;2022-08-19T07:01:07;3.90;;;0.40;;
43509;SDS011;29105;57.764;40.952;2022-08-19T07:03:34;8.07;;;0.55;;
43509;SDS011;29105;57.764;40.952;2022-08-19T07:06:04;13.45;;;0.98;;
43509;SDS011;29105;57.764;40.952;2022-08-19T07:08:33;5.43;;;0.73;;
43509;SDS011;29105;57.764;40.952;2022-08-19T07:11:02;7.72;;;0.80;;
43509;SDS011;29105;57.764;40.952;2022-08-19T07:13:32;9.55;;;1.20;;
43509;SDS011;29105;57.764;40.952;2022-08-19T07:16:04;4.18;;;0.77;;
43509;SDS011;29105;57.764;40.952;2022-08-19T07:18:31;6.40;;;0.85;;
43509;SDS011;29105;57.764;40.952;2022-08-19T07:21:08;7.25;;;1.10;;
43509;SDS011;29105;57.764;40.952;2022-08-19T07:23:42;5.97;;;0.95;;
43509;SDS011;29105;57.764;40.952;2022-08-19T07:26:14;4.88;;;0.95;;
43509;SDS011;29105;57.764;40.952;2022-08-19T07:28:45;2.97;;;0.68;;
43509;SDS011;29105;57.764;40.952;2022-08-19T07:31:13;5.90;;;0.88;;
43509;SDS011;29105;57.764;40.952;2022-08-19T07:33:40;6.03;;;0.88;;
43509;SDS011;29105;57.764;40.952;2022-08-19T07:36:09;1.48;;;0.40;;
43509;SDS011;29105;57.764;40.952;2022-08-19T07:38:36;2.45;;;0.68;;
43509;SDS011;29105;57.764;40.952;2022-08-19T07:41:04;3.72;;;1.13;;
43509;SDS011;29105;57.764;40.952;2022-08-19T07:43:32;8.48;;;1.02;;
43509;SDS011;29105;57.764;40.952;2022-08-19T07:45:57;8.07;;;0.88;;
43509;SDS011;29105;57.764;40.952;2022-08-19T07:48:24;2.72;;;0.70;;
43509;SDS011;29105;57.764;40.952;2022-08-19T07:50:51;3.40;;;0.63;;
43509;SDS011;29105;57.764;40.952;2022-08-19T07:53:19;8.15;;;0.63;;
43509;SDS011;29105;57.764;40.952;2022-08-19T07:55:46;9.50;;;1.15;;
43509;SDS011;29105;57.764;40.952;2022-08-19T07:58:21;5.60;;;0.80;;
43509;SDS011;29105;57.764;40.952;2022-08-19T08:00:48;4.20;;;0.95;;
43509;SDS011;29105;57.764;40.952;2022-08-19T08:03:16;10.23;;;0.95;;
43509;SDS011;29105;57.764;40.952;2022-08-19T08:05:44;9.02;;;0.98;;
43509;SDS011;29105;57.764;40.952;2022-08-19T08:08:28;7.00;;;0.60;;
43509;SDS011;29105;57.764;40.952;2022-08-19T08:11:13;3.38;;;0.50;;
43509;SDS011;29105;57.764;40.952;2022-08-19T08:13:40;7.35;;;0.75;;
43509;SDS011;29105;57.764;40.952;2022-08-19T08:16:08;3.75;;;0.38;;
43509;SDS011;29105;57.764;40.952;2022-08-19T08:18:34;4.05;;;0.70;;
43509;SDS011;29105;57.764;40.952;2022-08-19T08:21:06;2.35;;;0.75;;
43509;SDS011;29105;57.764;40.952;2022-08-19T08:23:32;12.98;;;1.00;;
43509;SDS011;29105;57.764;40.952;2022-08-19T08:25:58;6.18;;;1.13;;
43509;SDS011;29105;57.764;40.952;2022-08-19T08:28:24;6.22;;;0.90;;
43509;SDS011;29105;57.764;40.952;2022-08-19T08:30:50;5.50;;;0.90;;
43509;SDS011;29105;57.764;40.952;2022-08-19T08:33:18;2.05;;;0.60;;
43509;SDS011;29105;57.764;40.952;2022-08-19T08:35:45;2.05;;;0.55;;
43509;SDS011;29105;57.764;40.952;2022-08-19T08:38:14;4.32;;;0.70;;
43509;SDS011;29105;57.764;40.952;2022-08-19T08:46:01;1.95;;;0.65;;
43509;SDS011;29105;57.764;40.952;2022-08-19T08:51:11;7.03;;;1.27;;
43509;SDS011;29105;57.764;40.952;2022-08-19T08:53:42;4.18;;;0.80;;
43509;SDS011;29105;57.764;40.952;2022-08-19T08:56:12;3.83;;;0.82;;
43509;SDS011;29105;57.764;40.952;2022-08-19T08:59:04;4.05;;;0.50;;
43509;SDS011;29105;57.764;40.952;2022-08-19T09:01:34;2.28;;;0.70;;
43509;SDS011;29105;57.764;40.952;2022-08-19T09:04:03;8.20;;;1.13;;
43509;SDS011;29105;57.764;40.952;2022-08-19T09:06:40;4.18;;;0.55;;
43509;SDS011;29105;57.764;40.952;2022-08-19T09:11:54;4.68;;;0.50;;
43509;SDS011;29105;57.764;40.952;2022-08-19T09:17:23;3.80;;;0.60;;
43509;SDS011;29105;57.764;40.952;2022-08-19T09:20:18;3.00;;;0.52;;
43509;SDS011;29105;57.764;40.952;2022-08-19T09:22:43;6.32;;;0.70;;
43509;SDS011;29105;57.764;40.952;2022-08-19T09:25:12;2.25;;;0.75;;
43509;SDS011;29105;57.764;40.952;2022-08-19T09:27:40;1.52;;;0.50;;
43509;SDS011;29105;57.764;40.952;2022-08-19T09:30:07;5.85;;;0.75;;
43509;SDS011;29105;57.764;40.952;2022-08-19T09:32:35;1.52;;;0.32;;
43509;SDS011;29105;57.764;40.952;2022-08-19T09:35:01;3.92;;;0.70;;
43509;SDS011;29105;57.764;40.952;2022-08-19T09:37:27;5.97;;;0.77;;
43509;SDS011;29105;57.764;40.952;2022-08-19T09:39:53;2.80;;;0.50;;
43509;SDS011;29105;57.764;40.952;2022-08-19T09:42:20;1.92;;;0.77;;
43509;SDS011;29105;57.764;40.952;2022-08-19T09:44:48;6.32;;;0.52;;
43509;SDS011;29105;57.764;40.952;2022-08-19T09:47:16;4.30;;;0.52;;
43509;SDS011;29105;57.764;40.952;2022-08-19T09:49:41;7.72;;;0.90;;
43509;SDS011;29105;57.764;40.952;2022-08-19T09:52:10;6.38;;;0.90;;
43509;SDS011;29105;57.764;40.952;2022-08-19T09:54:37;5.30;;;0.65;;
43509;SDS011;29105;57.764;40.952;2022-08-19T09:57:03;4.47;;;0.60;;
43509;SDS011;29105;57.764;40.952;2022-08-19T09:59:29;6.78;;;0.75;;
43509;SDS011;29105;57.764;40.952;2022-08-19T10:02:11;4.93;;;0.77;;
43509;SDS011;29105;57.764;40.952;2022-08-19T10:04:38;7.53;;;1.02;;
43509;SDS011;29105;57.764;40.952;2022-08-19T10:07:22;4.18;;;0.50;;
43509;SDS011;29105;57.764;40.952;2022-08-19T10:09:49;3.72;;;0.40;;
43509;SDS011;29105;57.764;40.952;2022-08-19T10:12:15;5.93;;;0.93;;
43509;SDS011;29105;57.764;40.952;2022-08-19T10:14:41;5.18;;;1.00;;
43509;SDS011;29105;57.764;40.952;2022-08-19T10:17:09;3.65;;;0.90;;
43509;SDS011;29105;57.764;40.952;2022-08-19T10:19:35;8.77;;;0.68;;
43509;SDS011;29105;57.764;40.952;2022-08-19T10:22:05;5.25;;;0.68;;
43509;SDS011;29105;57.764;40.952;2022-08-19T10:24:32;8.23;;;0.90;;
43509;SDS011;29105;57.764;40.952;2022-08-19T10:27:01;1.83;;;0.47;;
43509;SDS011;29105;57.764;40.952;2022-08-19T10:29:31;1.17;;;0.40;;
43509;SDS011;29105;57.764;40.952;2022-08-19T10:32:06;1.95;;;0.50;;
43509;SDS011;29105;57.764;40.952;2022-08-19T10:34:34;3.72;;;0.43;;
43509;SDS011;29105;57.764;40.952;2022-08-19T10:37:01;3.80;;;0.38;;
43509;SDS011;29105;57.764;40.952;2022-08-19T10:39:32;1.73;;;0.30;;
43509;SDS011;29105;57.764;40.952;2022-08-19T10:42:07;10.30;;;0.70;;
43509;SDS011;29105;57.764;40.952;2022-08-19T10:44:36;1.50;;;0.30;;
43509;SDS011;29105;57.764;40.952;2022-08-19T10:47:02;4.05;;;0.32;;
43509;SDS011;29105;57.764;40.952;2022-08-19T10:49:28;1.20;;;0.20;;
43509;SDS011;29105;57.764;40.952;2022-08-19T10:51:55;2.35;;;0.50;;
43509;SDS011;29105;57.764;40.952;2022-08-19T10:54:40;6.57;;;0.28;;
43509;SDS011;29105;57.764;40.952;2022-08-19T10:57:24;7.43;;;0.82;;
43509;SDS011;29105;57.764;40.952;2022-08-19T10:59:55;6.47;;;0.43;;
43509;SDS011;29105;57.764;40.952;2022-08-19T11:02:21;7.65;;;0.55;;
43509;SDS011;29105;57.764;40.952;2022-08-19T11:04:47;6.78;;;0.60;;
43509;SDS011;29105;57.764;40.952;2022-08-19T11:07:14;5.22;;;0.45;;
43509;SDS011;29105;57.764;40.952;2022-08-19T11:09:41;6.50;;;0.80;;
43509;SDS011;29105;57.764;40.952;2022-08-19T11:12:07;4.95;;;0.60;;
43509;SDS011;29105;57.764;40.952;2022-08-19T11:14:35;5.38;;;0.73;;
43509;SDS011;29105;57.764;40.952;2022-08-19T11:17:02;4.43;;;0.50;;
43509;SDS011;29105;57.764;40.952;2022-08-19T11:19:29;1.27;;;0.40;;
43509;SDS011;29105;57.764;40.952;2022-08-19T11:21:56;1.20;;;0.20;;
43509;SDS011;29105;57.764;40.952;2022-08-19T11:24:23;2.85;;;0.25;;
43509;SDS011;29105;57.764;40.952;2022-08-19T11:26:50;3.15;;;0.45;;
43509;SDS011;29105;57.764;40.952;2022-08-19T11:29:19;1.25;;;0.47;;
43509;SDS011;29105;57.764;40.952;2022-08-19T11:31:46;5.00;;;0.70;;
43509;SDS011;29105;57.764;40.952;2022-08-19T11:34:18;7.25;;;0.63;;
43509;SDS011;29105;57.764;40.952;2022-08-19T11:36:46;3.05;;;0.17;;
43509;SDS011;29105;57.764;40.952;2022-08-19T11:39:14;1.30;;;0.20;;
43509;SDS011;29105;57.764;40.952;2022-08-19T11:41:41;2.53;;;0.43;;
43509;SDS011;29105;57.764;40.952;2022-08-19T11:44:08;1.30;;;0.22;;
43509;SDS011;29105;57.764;40.952;2022-08-19T11:46:35;5.45;;;0.40;;
43509;SDS011;29105;57.764;40.952;2022-08-19T11:49:03;4.18;;;0.32;;
43509;SDS011;29105;57.764;40.952;2022-08-19T11:51:30;5.15;;;0.30;;
43509;SDS011;29105;57.764;40.952;2022-08-19T11:53:57;1.65;;;0.60;;
43509;SDS011;29105;57.764;40.952;2022-08-19T11:56:24;8.20;;;0.40;;
43509;SDS011;29105;57.764;40.952;2022-08-19T11:58:51;4.22;;;0.35;;
43509;SDS011;29105;57.764;40.952;2022-08-19T12:01:18;7.30;;;0.60;;
43509;SDS011;29105;57.764;40.952;2022-08-19T12:03:46;2.40;;;0.30;;
43509;SDS011;29105;57.764;40.952;2022-08-19T12:06:14;3.95;;;0.43;;
43509;SDS011;29105;57.764;40.952;2022-08-19T12:08:43;1.73;;;0.25;;
43509;SDS011;29105;57.764;40.952;2022-08-19T12:11:09;2.35;;;0.50;;
43509;SDS011;29105;57.764;40.952;2022-08-19T12:13:36;4.97;;;0.30;;
43509;SDS011;29105;57.764;40.952;2022-08-19T12:16:10;5.13;;;0.60;;
43509;SDS011;29105;57.764;40.952;2022-08-19T12:18:40;3.67;;;0.55;;
43509;SDS011;29105;57.764;40.952;2022-08-19T12:21:09;7.75;;;0.95;;
43509;SDS011;29105;57.764;40.952;2022-08-19T12:23:36;2.88;;;0.57;;
43509;SDS011;29105;57.764;40.952;2022-08-19T12:26:05;6.03;;;0.40;;
43509;SDS011;29105;57.764;40.952;2022-08-19T12:28:31;3.50;;;0.50;;
43509;SDS011;29105;57.764;40.952;2022-08-19T12:30:57;3.45;;;0.30;;
43509;SDS011;29105;57.764;40.952;2022-08-19T12:33:22;4.07;;;0.80;;
43509;SDS011;29105;57.764;40.952;2022-08-19T12:35:51;3.65;;;0.30;;
43509;SDS011;29105;57.764;40.952;2022-08-19T12:38:17;0.93;;;0.35;;
43509;SDS011;29105;57.764;40.952;2022-08-19T12:40:46;3.00;;;0.38;;
43509;SDS011;29105;57.764;40.952;2022-08-19T12:43:14;3.07;;;0.40;;
43509;SDS011;29105;57.764;40.952;2022-08-19T12:45:41;3.08;;;0.38;;
43509;SDS011;29105;57.764;40.952;2022-08-19T12:48:08;6.47;;;1.05;;
43509;SDS011;29105;57.764;40.952;2022-08-19T12:50:34;2.22;;;0.30;;
43509;SDS011;29105;57.764;40.952;2022-08-19T12:53:00;6.40;;;0.40;;
43509;SDS011;29105;57.764;40.952;2022-08-19T12:55:25;1.17;;;0.30;;
43509;SDS011;29105;57.764;40.952;2022-08-19T12:57:53;2.17;;;0.40;;
43509;SDS011;29105;57.764;40.952;2022-08-19T13:00:19;3.22;;;0.35;;
43509;SDS011;29105;57.764;40.952;2022-08-19T13:02:48;4.40;;;0.35;;
43509;SDS011;29105;57.764;40.952;2022-08-19T13:05:18;5.28;;;0.32;;
43509;SDS011;29105;57.764;40.952;2022-08-19T13:07:49;3.00;;;0.40;;
43509;SDS011;29105;57.764;40.952;2022-08-19T13:10:17;5.45;;;0.40;;
43509;SDS011;29105;57.764;40.952;2022-08-19T13:12:45;2.97;;;0.40;;
43509;SDS011;29105;57.764;40.952;2022-08-19T13:15:13;4.40;;;0.30;;
43509;SDS011;29105;57.764;40.952;2022-08-19T13:17:42;3.17;;;0.25;;
43509;SDS011;29105;57.764;40.952;2022-08-19T13:20:08;4.15;;;0.65;;
43509;SDS011;29105;57.764;40.952;2022-08-19T13:22:35;6.35;;;0.57;;
43509;SDS011;29105;57.764;40.952;2022-08-19T13:25:03;2.00;;;0.30;;
43509;SDS011;29105;57.764;40.952;2022-08-19T13:27:32;7.32;;;0.30;;
43509;SDS011;29105;57.764;40.952;2022-08-19T13:29:58;2.25;;;0.98;;
43509;SDS011;29105;57.764;40.952;2022-08-19T13:32:42;1.90;;;0.40;;
43509;SDS011;29105;57.764;40.952;2022-08-19T13:35:27;3.30;;;0.30;;
43509;SDS011;29105;57.764;40.952;2022-08-19T13:37:52;7.43;;;0.60;;
43509;SDS011;29105;57.764;40.952;2022-08-19T13:40:22;13.77;;;1.58;;
43509;SDS011;29105;57.764;40.952;2022-08-19T13:42:52;2.83;;;0.63;;
43509;SDS011;29105;57.764;40.952;2022-08-19T13:45:19;1.65;;;0.52;;
43509;SDS011;29105;57.764;40.952;2022-08-19T13:47:48;7.68;;;0.38;;
43509;SDS011;29105;57.764;40.952;2022-08-19T13:50:16;6.45;;;0.40;;
43509;SDS011;29105;57.764;40.952;2022-08-19T13:52:48;5.18;;;0.70;;
43509;SDS011;29105;57.764;40.952;2022-08-19T13:55:14;0.82;;;0.30;;
43509;SDS011;29105;57.764;40.952;2022-08-19T13:57:40;1.67;;;0.45;;
43509;SDS011;29105;57.764;40.952;2022-08-19T14:00:14;8.20;;;0.60;;
43509;SDS011;29105;57.764;40.952;2022-08-19T14:02:51;8.32;;;0.85;;
43509;SDS011;29105;57.764;40.952;2022-08-19T14:05:18;3.17;;;0.40;;
43509;SDS011;29105;57.764;40.952;2022-08-19T14:07:44;3.45;;;0.40;;
43509;SDS011;29105;57.764;40.952;2022-08-19T14:10:11;6.43;;;0.50;;
43509;SDS011;29105;57.764;40.952;2022-08-19T14:12:38;8.38;;;0.68;;
43509;SDS011;29105;57.764;40.952;2022-08-19T14:15:04;5.70;;;0.63;;
43509;SDS011;29105;57.764;40.952;2022-08-19T14:17:32;3.85;;;0.68;;
43509;SDS011;29105;57.764;40.952;2022-08-19T14:20:02;6.32;;;0.82;;
43509;SDS011;29105;57.764;40.952;2022-08-19T14:22:31;5.22;;;0.60;;
43509;SDS011;29105;57.764;40.952;2022-08-19T14:24:57;2.58;;;0.20;;
43509;SDS011;29105;57.764;40.952;2022-08-19T14:27:23;1.17;;;0.40;;
43509;SDS011;29105;57.764;40.952;2022-08-19T14:29:50;5.95;;;0.68;;
43509;SDS011;29105;57.764;40.952;2022-08-19T14:32:19;5.47;;;0.68;;
43509;SDS011;29105;57.764;40.952;2022-08-19T14:34:44;2.97;;;0.38;;
43509;SDS011;29105;57.764;40.952;2022-08-19T14:37:14;10.82;;;1.02;;
43509;SDS011;29105;57.764;40.952;2022-08-19T14:39:43;4.43;;;0.60;;
43509;SDS011;29105;57.764;40.952;2022-08-19T14:42:10;4.47;;;0.98;;
43509;SDS011;29105;57.764;40.952;2022-08-19T14:44:39;3.03;;;0.60;;
43509;SDS011;29105;57.764;40.952;2022-08-19T14:47:05;5.85;;;1.35;;
43509;SDS011;29105;57.764;40.952;2022-08-19T14:49:32;7.45;;;0.90;;
43509;SDS011;29105;57.764;40.952;2022-08-19T14:52:02;8.07;;;1.75;;
43509;SDS011;29105;57.764;40.952;2022-08-19T14:54:29;4.57;;;1.88;;